Time;durP1;ratioP1;P1;durP2;ratioP2;P2;SDS_P1;SDS_P2;PMS_P1;PMS_P2;Temp;Humidity;BMP_temperature;BMP_pressure;BME280_temperature;BME280_humidity;BME280_pressure;Samples;Min_cycle;Max_cycle;Signal;HPM_P1;HPM_P2
2023/03/07 00:01:24;;;;;;;3.20;1.23;;;28.80;38.10;;;;;;4995006;28;20238;-69
2023/03/07 00:03:51;;;;;;;10.07;2.03;;;29.00;38.00;;;;;;5009574;28;20552;-67
2023/03/07 00:06:21;;;;;;;5.67;1.43;;;29.10;37.60;;;;;;5014058;28;20177;-66
2023/03/07 00:08:53;;;;;;;10.77;1.40;;;29.30;37.60;;;;;;5013663;28;20181;-66
2023/03/07 00:11:21;;;;;;;5.43;1.47;;;29.60;36.60;;;;;;5012191;28;20706;-65
2023/03/07 00:13:51;;;;;;;4.87;1.37;;;29.50;36.70;;;;;;5013740;28;20221;-65
2023/03/07 00:16:21;;;;;;;7.47;2.07;;;29.50;36.90;;;;;;5013830;28;20180;-65
2023/03/07 00:18:49;;;;;;;4.73;1.20;;;29.60;37.30;;;;;;5013920;28;20177;-66
2023/03/07 00:21:30;;;;;;;4.83;1.50;;;29.80;36.60;;;;;;5013616;28;20185;-66
2023/03/07 00:23:57;;;;;;;8.47;1.80;;;29.90;37.10;;;;;;5013985;28;20180;-64
2023/03/07 00:26:26;;;;;;;8.75;1.60;;;30.10;37.00;;;;;;4996130;28;20181;-68
2023/03/07 00:28:54;;;;;;;7.07;1.60;;;30.10;37.00;;;;;;5013786;28;20217;-68
2023/03/07 00:31:23;;;;;;;6.78;1.65;;;30.20;36.60;;;;;;5013721;28;20220;-65
2023/03/07 00:33:51;;;;;;;6.45;1.80;;;30.20;36.30;;;;;;5013447;28;20570;-65
2023/03/07 00:36:24;;;;;;;3.25;1.40;;;30.20;35.80;;;;;;5013861;28;20173;-67
2023/03/07 00:38:52;;;;;;;3.53;1.70;;;30.50;35.50;;;;;;4977426;28;20241;-67
2023/03/07 00:41:24;;;;;;;7.33;1.40;;;30.70;35.80;;;;;;4968226;28;20190;-64
2023/03/07 00:43:54;;;;;;;6.57;1.70;;;30.60;36.10;;;;;;5004998;28;20272;-65
2023/03/07 00:46:24;;;;;;;4.35;1.58;;;30.20;36.00;;;;;;5011982;28;20453;-70
2023/03/07 00:48:54;;;;;;;8.20;1.70;;;30.10;37.00;;;;;;5012944;28;20213;-73
2023/03/07 00:51:22;;;;;;;4.93;1.30;;;30.00;36.40;;;;;;5013330;28;20188;-67
2023/03/07 00:53:52;;;;;;;5.35;1.20;;;29.90;36.20;;;;;;5012821;28;20236;-65
2023/03/07 00:56:22;;;;;;;11.03;1.30;;;29.90;36.30;;;;;;5012831;28;20232;-66
2023/03/07 00:58:51;;;;;;;6.17;1.30;;;29.70;36.20;;;;;;5013215;28;20651;-69
2023/03/07 01:01:23;;;;;;;8.25;1.30;;;29.60;37.10;;;;;;5012567;28;20228;-69
2023/03/07 01:03:54;;;;;;;4.68;1.58;;;29.60;37.30;;;;;;5013144;28;20191;-66
2023/03/07 01:06:26;;;;;;;2.90;1.27;;;29.50;37.30;;;;;;4999942;28;20240;-66
2023/03/07 01:08:59;;;;;;;3.30;1.38;;;29.80;36.40;;;;;;5004751;28;20584;-69
2023/03/07 01:11:29;;;;;;;6.20;1.53;;;30.50;35.90;;;;;;5012231;28;20626;-67
2023/03/07 01:14:03;;;;;;;6.03;1.50;;;30.80;35.00;;;;;;5012839;28;20726;-68
2023/03/07 01:16:33;;;;;;;5.57;1.52;;;31.30;34.80;;;;;;5013141;28;20703;-69
2023/03/07 01:19:08;;;;;;;6.95;1.90;;;31.50;34.00;;;;;;5013240;28;20173;-67
2023/03/07 01:21:40;;;;;;;5.85;2.10;;;31.80;34.30;;;;;;5012729;28;20168;-66
2023/03/07 01:24:11;;;;;;;3.65;1.38;;;31.90;33.70;;;;;;4995576;28;20636;-67
2023/03/07 01:26:39;;;;;;;2.78;1.27;;;32.00;31.90;;;;;;5013034;28;20181;-65
2023/03/07 01:29:08;;;;;;;4.72;1.23;;;32.20;30.60;;;;;;5013160;28;20188;-66
2023/03/07 01:31:38;;;;;;;7.82;1.55;;;32.30;30.70;;;;;;5011990;28;20236;-66
2023/03/07 01:34:06;;;;;;;4.60;1.55;;;32.40;30.80;;;;;;5012665;28;20209;-65
2023/03/07 01:36:37;;;;;;;5.95;1.30;;;32.40;30.90;;;;;;5012855;28;20169;-67
2023/03/07 01:39:13;;;;;;;3.13;1.13;;;32.60;31.00;;;;;;5012733;28;20672;-67
2023/03/07 01:41:41;;;;;;;6.50;1.35;;;32.70;30.50;;;;;;5012761;28;20526;-67
2023/03/07 01:44:20;;;;;;;6.80;1.00;;;32.60;30.90;;;;;;5012605;28;20709;-68
2023/03/07 01:47:14;;;;;;;6.68;1.30;;;33.00;30.10;;;;;;5012921;28;20169;-66
2023/03/07 01:49:45;;;;;;;6.88;1.30;;;32.90;29.60;;;;;;4994341;28;20269;-65
2023/03/07 01:52:36;;;;;;;4.78;1.17;;;32.80;29.80;;;;;;4999998;28;20331;-69
2023/03/07 01:55:27;;;;;;;5.45;1.58;;;32.90;30.20;;;;;;5012272;28;20192;-70
2023/03/07 01:57:58;;;;;;;8.82;1.45;;;32.80;29.70;;;;;;5012594;28;20250;-66
2023/03/07 02:00:28;;;;;;;5.78;1.23;;;33.20;29.70;;;;;;5015252;28;20175;-70
2023/03/07 02:03:11;;;;;;;5.00;1.40;;;33.40;30.10;;;;;;5016458;28;20173;-70
2023/03/07 02:05:48;;;;;;;5.95;1.52;;;33.80;29.40;;;;;;5016148;28;20165;-70
2023/03/07 02:08:19;;;;;;;70.43;6.00;;;33.90;28.60;;;;;;5016543;28;20208;-66
2023/03/07 02:10:48;;;;;;;5.38;1.17;;;34.00;28.10;;;;;;5016278;28;20177;-68
2023/03/07 02:13:17;;;;;;;2.50;0.93;;;33.80;27.90;;;;;;5015858;28;20217;-70
2023/03/07 02:15:44;;;;;;;3.22;0.90;;;33.90;27.60;;;;;;5016226;28;20546;-68
2023/03/07 02:18:19;;;;;;;3.53;1.25;;;34.20;27.60;;;;;;5016229;28;20185;-67
2023/03/07 02:21:14;;;;;;;5.75;1.15;;;34.40;26.90;;;;;;5014503;28;20188;-68
2023/03/07 02:24:05;;;;;;;2.47;1.20;;;34.60;27.70;;;;;;5016091;28;20674;-66
2023/03/07 02:26:35;;;;;;;4.32;1.33;;;34.60;25.70;;;;;;4998718;28;20181;-69
2023/03/07 02:29:03;;;;;;;4.57;1.05;;;34.50;26.90;;;;;;5015848;28;20181;-69
2023/03/07 02:31:30;;;;;;;3.17;1.00;;;34.70;26.00;;;;;;5016026;28;20181;-66
2023/03/07 02:33:59;;;;;;;3.13;1.10;;;34.60;25.70;;;;;;5016016;28;20213;-65
2023/03/07 02:36:37;;;;;;;2.45;0.80;;;34.70;26.00;;;;;;4998559;28;20333;-67
2023/03/07 02:39:06;;;;;;;6.43;1.02;;;34.80;25.30;;;;;;4978867;28;20542;-67
2023/03/07 02:41:39;;;;;;;4.53;1.20;;;35.00;25.00;;;;;;5009610;28;20188;-65
2023/03/07 02:44:07;;;;;;;4.57;1.40;;;35.30;24.30;;;;;;5015723;28;20231;-67
2023/03/07 02:46:36;;;;;;;2.83;0.90;;;35.20;24.40;;;;;;5015854;28;20543;-67
2023/03/07 02:49:04;;;;;;;6.50;1.17;;;35.30;24.60;;;;;;5015893;28;20181;-68
2023/03/07 02:51:33;;;;;;;4.90;1.10;;;35.30;24.40;;;;;;5015249;28;20252;-66
2023/03/07 02:54:01;;;;;;;2.22;0.90;;;35.20;24.30;;;;;;5000015;28;20244;-65
2023/03/07 02:56:29;;;;;;;22.52;3.75;;;34.90;24.20;;;;;;5015390;28;20173;-64
2023/03/07 02:58:57;;;;;;;20.60;3.22;;;35.40;23.30;;;;;;5014273;28;20181;-67
2023/03/07 03:01:25;;;;;;;3.80;0.95;;;35.90;23.20;;;;;;4977541;28;20553;-68
2023/03/07 03:03:54;;;;;;;8.13;1.23;;;35.90;23.80;;;;;;4998311;28;20174;-66
2023/03/07 03:06:23;;;;;;;5.00;0.95;;;36.20;23.10;;;;;;5015616;28;20531;-66
2023/03/07 03:08:50;;;;;;;4.63;0.93;;;36.30;22.40;;;;;;5013495;28;20235;-67
2023/03/07 03:11:18;;;;;;;2.35;0.80;;;36.20;21.70;;;;;;4992968;28;20178;-67
2023/03/07 03:13:48;;;;;;;4.25;0.90;;;36.00;21.70;;;;;;4997302;28;20664;-66
2023/03/07 03:16:16;;;;;;;3.60;0.80;;;36.30;21.90;;;;;;4993011;28;20181;-66
2023/03/07 03:18:44;;;;;;;4.88;0.98;;;36.40;21.00;;;;;;4993588;28;20243;-66
2023/03/07 03:21:14;;;;;;;3.88;0.82;;;36.40;21.70;;;;;;4995052;28;20186;-64
2023/03/07 03:23:43;;;;;;;3.85;0.85;;;36.50;21.10;;;;;;4994257;28;20222;-66
2023/03/07 03:26:10;;;;;;;1.90;0.82;;;36.60;21.30;;;;;;4996542;28;20181;-76
2023/03/07 03:28:39;;;;;;;5.65;2.90;;;36.90;21.00;;;;;;4991133;28;20193;-71
2023/03/07 03:31:13;;;;;;;4.18;0.90;;;36.90;21.30;;;;;;4994437;28;20175;-74
2023/03/07 03:33:45;;;;;;;3.58;0.85;;;36.80;21.60;;;;;;4989714;28;20228;-81
2023/03/07 03:36:17;;;;;;;3.03;0.93;;;36.90;21.00;;;;;;4994634;28;20186;-73
2023/03/07 03:38:44;;;;;;;3.53;1.10;;;36.90;21.40;;;;;;4991068;28;20229;-67
2023/03/07 03:41:17;;;;;;;3.22;0.88;;;37.10;21.40;;;;;;4990408;28;20202;-67
2023/03/07 03:43:44;;;;;;;5.30;1.63;;;36.90;20.80;;;;;;4997789;28;20256;-68
2023/03/07 03:46:12;;;;;;;12.68;1.80;;;36.80;27.90;;;;;;4997780;28;20190;-69
2023/03/07 03:48:40;;;;;;;8.40;2.13;;;35.40;33.80;;;;;;5002349;28;20178;-68
2023/03/07 03:51:11;;;;;;;8.57;1.95;;;34.90;34.80;;;;;;4993420;28;20666;-68
2023/03/07 03:53:39;;;;;;;8.05;1.90;;;34.80;35.40;;;;;;4996157;28;20221;-69
2023/03/07 03:56:14;;;;;;;5.28;1.73;;;33.90;36.50;;;;;;4994062;28;20182;-68
2023/03/07 03:58:42;;;;;;;7.53;2.58;;;33.10;37.70;;;;;;4996200;28;20678;-75
2023/03/07 04:01:12;;;;;;;8.27;1.95;;;34.10;36.10;;;;;;4994552;28;20268;-69
2023/03/07 04:03:43;;;;;;;8.75;1.80;;;33.90;35.20;;;;;;4991727;28;20243;-68
2023/03/07 04:06:12;;;;;;;7.13;1.40;;;33.80;36.00;;;;;;4993716;28;20262;-69
2023/03/07 04:08:42;;;;;;;5.72;1.40;;;33.60;36.40;;;;;;4999611;28;20202;-72
2023/03/07 04:11:16;;;;;;;9.63;1.75;;;33.70;36.10;;;;;;4994701;28;20642;-70
2023/03/07 04:13:43;;;;;;;8.10;1.73;;;33.40;37.00;;;;;;4998413;28;20225;-68
2023/03/07 04:16:11;;;;;;;6.13;1.30;;;33.70;36.70;;;;;;4997421;28;20200;-73
2023/03/07 04:18:41;;;;;;;4.90;1.50;;;33.60;36.60;;;;;;5013851;28;20252;-78
2023/03/07 04:21:11;;;;;;;4.22;1.30;;;34.00;36.20;;;;;;4990047;28;20674;-77
2023/03/07 04:23:54;;;;;;;7.80;1.52;;;33.40;36.90;;;;;;4990672;28;20266;-74
2023/03/07 04:26:22;;;;;;;5.40;1.33;;;34.10;36.00;;;;;;4985861;28;20214;-68
2023/03/07 04:28:49;;;;;;;7.80;1.48;;;33.70;37.50;;;;;;5003775;28;20189;-71
2023/03/07 04:31:22;;;;;;;5.57;1.50;;;33.30;37.60;;;;;;5009146;28;20193;-69
2023/03/07 04:33:50;;;;;;;4.38;1.40;;;33.70;37.70;;;;;;4990497;28;20232;-74
2023/03/07 04:36:24;;;;;;;7.38;1.80;;;33.80;37.40;;;;;;5003375;28;20185;-70
2023/03/07 04:38:52;;;;;;;3.22;1.38;;;33.40;38.30;;;;;;4983329;28;20191;-68
2023/03/07 04:41:25;;;;;;;5.68;1.27;;;33.50;37.20;;;;;;5004272;28;20285;-70
2023/03/07 04:43:52;;;;;;;8.90;1.95;;;33.20;37.10;;;;;;5003484;28;20188;-70
2023/03/07 04:46:20;;;;;;;8.23;2.00;;;33.40;37.40;;;;;;5007781;28;20178;-69
2023/03/07 04:48:50;;;;;;;6.50;1.48;;;33.40;37.30;;;;;;5006631;28;20201;-69
2023/03/07 04:51:18;;;;;;;8.38;1.58;;;33.30;36.70;;;;;;5006587;28;20173;-69
2023/03/07 04:53:46;;;;;;;6.78;2.03;;;33.30;36.60;;;;;;4981183;28;20731;-69
2023/03/07 04:56:16;;;;;;;4.85;1.73;;;34.30;35.20;;;;;;5002865;28;20189;-69
2023/03/07 04:58:44;;;;;;;5.18;1.33;;;33.30;36.10;;;;;;5013052;28;20180;-70
2023/03/07 05:01:11;;;;;;;3.60;1.40;;;32.70;35.90;;;;;;4996856;28;20204;-67
2023/03/07 05:03:39;;;;;;;5.18;1.30;;;32.80;37.30;;;;;;4991708;28;20261;-67
2023/03/07 05:06:13;;;;;;;8.35;1.40;;;32.80;36.10;;;;;;4994029;28;20595;-69
2023/03/07 05:08:40;;;;;;;6.25;1.85;;;33.30;36.20;;;;;;4974474;28;20178;-70
2023/03/07 05:11:08;;;;;;;6.80;1.50;;;33.30;36.70;;;;;;5012972;28;20632;-69
2023/03/07 05:13:36;;;;;;;6.97;1.35;;;33.10;36.10;;;;;;5001110;28;20279;-74
2023/03/07 05:16:03;;;;;;;4.60;1.90;;;33.20;36.60;;;;;;4999355;28;20240;-69
2023/03/07 05:18:31;;;;;;;4.75;1.55;;;33.30;37.00;;;;;;4994277;28;20196;-69
2023/03/07 05:20:58;;;;;;;5.25;1.60;;;33.10;37.20;;;;;;4990621;28;20182;-71
2023/03/07 05:23:29;;;;;;;6.53;1.73;;;33.30;35.80;;;;;;4986386;28;20209;-69
2023/03/07 05:25:56;;;;;;;5.25;1.88;;;33.50;35.40;;;;;;4987524;28;20671;-72
2023/03/07 05:28:23;;;;;;;6.65;2.05;;;33.60;35.20;;;;;;4985033;28;20239;-70
2023/03/07 05:30:52;;;;;;;4.15;1.58;;;33.90;35.50;;;;;;4992544;28;20189;-69
2023/03/07 05:33:20;;;;;;;12.57;2.28;;;34.10;34.80;;;;;;4987544;28;20209;-70
2023/03/07 05:35:48;;;;;;;5.30;1.63;;;33.50;36.20;;;;;;4987902;28;20186;-67
2023/03/07 05:38:17;;;;;;;9.90;1.77;;;33.70;37.20;;;;;;4988355;28;20181;-68
2023/03/07 05:40:45;;;;;;;8.40;1.90;;;34.30;36.20;;;;;;4991698;28;20189;-67
2023/03/07 05:43:13;;;;;;;5.15;1.75;;;33.70;36.40;;;;;;4989772;28;20193;-69
2023/03/07 05:45:42;;;;;;;6.00;1.73;;;33.70;37.30;;;;;;4990669;28;20177;-68
2023/03/07 05:48:10;;;;;;;8.48;1.58;;;33.60;38.20;;;;;;4988914;28;20186;-67
2023/03/07 05:50:38;;;;;;;6.15;2.03;;;34.40;37.50;;;;;;4988710;28;20628;-68
2023/03/07 05:53:06;;;;;;;4.82;1.63;;;33.80;37.70;;;;;;4994191;28;20227;-72
2023/03/07 05:55:34;;;;;;;7.25;1.80;;;33.30;38.60;;;;;;4986432;28;20270;-68
2023/03/07 05:58:03;;;;;;;5.95;1.52;;;32.80;38.80;;;;;;4994850;28;20248;-68
2023/03/07 06:00:31;;;;;;;7.38;1.60;;;32.50;39.90;;;;;;4986373;28;20224;-73
2023/03/07 06:03:02;;;;;;;4.60;1.38;;;32.70;38.90;;;;;;4968767;28;20237;-80
2023/03/07 06:05:29;;;;;;;5.63;1.33;;;32.40;39.60;;;;;;4985150;28;20181;-73
2023/03/07 06:07:57;;;;;;;6.90;1.50;;;32.60;40.00;;;;;;4995502;28;20553;-77
2023/03/07 06:10:24;;;;;;;7.63;1.27;;;32.70;39.60;;;;;;4989783;28;20491;-71
2023/03/07 06:12:53;;;;;;;5.95;1.30;;;32.40;38.20;;;;;;4987062;28;20214;-71
2023/03/07 06:15:22;;;;;;;4.15;1.70;;;32.10;37.60;;;;;;4988585;28;20204;-69
2023/03/07 06:17:51;;;;;;;9.93;1.60;;;32.30;36.60;;;;;;4988308;28;20261;-75
2023/03/07 06:20:21;;;;;;;5.45;1.60;;;32.20;37.40;;;;;;4987873;28;20221;-72
2023/03/07 06:22:51;;;;;;;6.00;1.67;;;32.00;37.60;;;;;;4984241;28;21934;-74
2023/03/07 06:25:20;;;;;;;4.18;1.65;;;32.70;36.80;;;;;;4987074;28;20673;-73
2023/03/07 06:27:47;;;;;;;7.47;1.50;;;32.90;36.30;;;;;;4985556;28;20336;-68
2023/03/07 06:30:15;;;;;;;7.78;1.42;;;32.80;36.50;;;;;;4993282;28;20644;-70
2023/03/07 06:32:42;;;;;;;6.50;1.60;;;32.60;37.50;;;;;;4987443;28;20182;-75
2023/03/07 06:35:10;;;;;;;7.32;1.67;;;32.90;37.20;;;;;;4994033;28;20189;-75
2023/03/07 06:37:37;;;;;;;7.72;2.22;;;32.50;38.00;;;;;;4966248;28;20182;-68
2023/03/07 06:40:08;;;;;;;12.15;1.80;;;32.60;38.50;;;;;;4991770;28;20178;-76
2023/03/07 06:42:36;;;;;;;4.72;1.45;;;32.60;38.30;;;;;;4986164;28;20190;-71
2023/03/07 06:45:04;;;;;;;6.28;1.67;;;32.10;39.50;;;;;;4991029;28;20571;-69
2023/03/07 06:47:31;;;;;;;6.97;1.92;;;32.40;39.30;;;;;;4989566;28;20178;-73
2023/03/07 06:50:01;;;;;;;6.70;1.92;;;32.40;39.60;;;;;;4993606;28;20189;-75
2023/03/07 06:52:29;;;;;;;4.38;1.48;;;32.70;39.70;;;;;;4991082;28;20265;-68
2023/03/07 06:54:56;;;;;;;8.48;4.25;;;32.80;40.20;;;;;;4976584;28;20669;-69
2023/03/07 06:57:26;;;;;;;8.60;1.90;;;32.50;41.10;;;;;;4985193;28;20633;-74
2023/03/07 06:59:53;;;;;;;11.48;3.22;;;32.90;41.20;;;;;;4994704;28;20195;-69
2023/03/07 07:02:21;;;;;;;9.93;4.78;;;33.20;41.50;;;;;;4988417;28;20187;-67
2023/03/07 07:04:48;;;;;;;10.48;1.92;;;32.20;43.80;;;;;;4990969;28;20190;-71
2023/03/07 07:07:16;;;;;;;10.25;1.98;;;31.90;45.20;;;;;;4991363;28;20205;-73
2023/03/07 07:09:43;;;;;;;6.53;2.08;;;32.00;45.80;;;;;;4991323;28;20174;-72
2023/03/07 07:12:11;;;;;;;8.10;2.13;;;32.10;46.00;;;;;;4991958;28;20380;-75
2023/03/07 07:14:41;;;;;;;6.88;1.90;;;32.10;45.90;;;;;;4998400;28;20279;-73
2023/03/07 07:17:08;;;;;;;7.10;1.95;;;31.90;46.90;;;;;;4993196;28;20189;-74
2023/03/07 07:19:36;;;;;;;11.30;2.13;;;32.10;46.80;;;;;;4977259;28;20574;-73
2023/03/07 07:22:05;;;;;;;7.90;2.03;;;32.10;47.00;;;;;;4975303;28;20217;-68
2023/03/07 07:24:32;;;;;;;14.32;2.33;;;31.90;48.20;;;;;;4993515;28;20186;-70
2023/03/07 07:26:59;;;;;;;9.80;2.55;;;32.10;48.30;;;;;;4995950;28;20181;-66
2023/03/07 07:29:27;;;;;;;12.75;2.70;;;31.30;51.00;;;;;;4992418;28;20220;-74
2023/03/07 07:31:55;;;;;;;12.77;2.63;;;31.10;52.00;;;;;;4990654;28;20269;-78
2023/03/07 07:34:22;;;;;;;12.15;2.95;;;30.70;53.30;;;;;;4986962;28;20205;-67
2023/03/07 07:36:52;;;;;;;13.85;2.80;;;30.60;53.70;;;;;;4984087;28;20174;-66
2023/03/07 07:39:20;;;;;;;8.85;2.50;;;30.80;53.50;;;;;;4988650;28;20268;-68
2023/03/07 07:41:48;;;;;;;12.43;3.45;;;31.20;53.10;;;;;;4989306;28;20188;-67
2023/03/07 07:44:15;;;;;;;10.57;2.92;;;31.10;53.50;;;;;;4986904;28;20193;-67
2023/03/07 07:46:42;;;;;;;12.15;2.90;;;30.80;54.70;;;;;;4996032;28;20178;-74
2023/03/07 07:49:10;;;;;;;13.07;3.38;;;30.20;56.60;;;;;;4986045;28;20188;-70
2023/03/07 07:51:39;;;;;;;11.70;3.00;;;29.50;59.20;;;;;;4989843;28;20234;-75
2023/03/07 07:54:08;;;;;;;15.13;3.50;;;29.10;61.00;;;;;;4991513;28;20538;-73
2023/03/07 07:56:36;;;;;;;13.80;2.90;;;28.70;62.80;;;;;;4993689;28;20178;-75
2023/03/07 07:59:04;;;;;;;15.33;3.00;;;28.40;63.80;;;;;;4993571;28;20212;-72
2023/03/07 08:01:32;;;;;;;12.57;3.07;;;28.30;65.00;;;;;;4996835;28;20272;-68
2023/03/07 08:03:59;;;;;;;13.30;3.07;;;28.20;65.50;;;;;;4979087;28;20197;-68
2023/03/07 08:06:27;;;;;;;14.83;3.30;;;28.00;66.40;;;;;;4991307;28;20178;-67
2023/03/07 08:08:55;;;;;;;16.30;3.47;;;28.00;66.90;;;;;;5000274;28;20268;-66
2023/03/07 08:11:24;;;;;;;16.87;3.17;;;27.80;68.00;;;;;;4997192;28;20687;-65
2023/03/07 08:13:51;;;;;;;22.23;4.10;;;27.70;68.80;;;;;;5005292;28;20217;-72
2023/03/07 08:16:22;;;;;;;15.93;3.27;;;27.70;69.10;;;;;;5003021;28;20181;-67
2023/03/07 08:18:53;;;;;;;27.67;3.90;;;27.60;69.70;;;;;;5014036;28;20169;-75
2023/03/07 08:21:20;;;;;;;26.07;4.37;;;27.40;70.20;;;;;;5001555;28;20236;-68
2023/03/07 08:23:48;;;;;;;14.20;3.60;;;27.50;70.70;;;;;;5006912;28;20227;-68
2023/03/07 08:26:16;;;;;;;20.43;4.10;;;27.30;71.60;;;;;;5012113;28;20258;-74
2023/03/07 08:28:44;;;;;;;23.87;4.27;;;27.30;72.00;;;;;;5013795;28;20189;-74
2023/03/07 08:31:16;;;;;;;21.63;3.20;;;27.10;72.40;;;;;;5002976;28;20182;-74
2023/03/07 08:33:45;;;;;;;18.53;3.93;;;27.00;73.10;;;;;;5007346;28;20300;-75
2023/03/07 08:36:14;;;;;;;20.87;4.23;;;27.10;73.40;;;;;;4995964;28;20185;-70
2023/03/07 08:38:42;;;;;;;19.97;4.07;;;26.90;73.60;;;;;;4974767;28;20167;-73
2023/03/07 08:41:10;;;;;;;20.60;4.07;;;26.80;74.50;;;;;;4986159;28;20210;-74
2023/03/07 08:43:40;;;;;;;16.83;4.20;;;26.80;74.90;;;;;;4994050;28;20214;-72
2023/03/07 08:46:08;;;;;;;18.93;3.77;;;26.80;75.20;;;;;;4992727;28;20268;-66
2023/03/07 08:48:35;;;;;;;21.53;4.50;;;26.80;75.30;;;;;;4997741;28;20217;-65
2023/03/07 08:51:08;;;;;;;25.80;4.80;;;26.80;76.00;;;;;;4989068;28;20190;-67
2023/03/07 08:53:36;;;;;;;21.50;4.57;;;26.70;76.30;;;;;;4990612;28;20205;-66
2023/03/07 08:56:08;;;;;;;17.70;4.23;;;26.60;76.70;;;;;;4993725;28;20210;-66
2023/03/07 08:58:37;;;;;;;23.27;4.33;;;26.60;77.10;;;;;;4988536;28;20183;-66
2023/03/07 09:01:05;;;;;;;19.77;4.57;;;26.50;77.50;;;;;;4992314;28;20190;-67
2023/03/07 09:03:33;;;;;;;19.37;4.83;;;26.50;77.70;;;;;;4982412;28;20174;-67
2023/03/07 09:06:01;;;;;;;21.93;4.90;;;26.60;77.60;;;;;;4991751;28;20187;-67
2023/03/07 09:08:29;;;;;;;22.77;4.20;;;26.50;78.00;;;;;;4982882;28;20709;-67
2023/03/07 09:11:04;;;;;;;22.80;4.57;;;26.50;77.90;;;;;;4986293;28;20209;-66
2023/03/07 09:13:31;;;;;;;23.27;4.67;;;26.40;78.30;;;;;;4986560;28;20240;-67
2023/03/07 09:15:59;;;;;;;28.93;4.90;;;26.40;77.70;;;;;;4989821;28;20213;-66
2023/03/07 09:18:26;;;;;;;26.37;4.87;;;26.50;78.30;;;;;;4991552;28;20189;-67
2023/03/07 09:20:53;;;;;;;23.20;4.80;;;26.40;78.10;;;;;;4992346;28;20218;-67
2023/03/07 09:23:21;;;;;;;30.43;4.90;;;26.30;78.60;;;;;;4992737;28;20185;-66
2023/03/07 09:25:48;;;;;;;19.07;3.90;;;26.20;79.10;;;;;;4991856;28;20209;-67
2023/03/07 09:28:16;;;;;;;22.43;4.37;;;26.20;79.40;;;;;;4992336;28;20213;-67
2023/03/07 09:30:43;;;;;;;20.43;3.83;;;26.10;79.60;;;;;;4992685;28;20189;-67
2023/03/07 09:33:10;;;;;;;29.27;4.67;;;26.10;79.60;;;;;;4991168;28;20652;-66
2023/03/07 09:35:38;;;;;;;23.77;4.73;;;26.10;79.50;;;;;;4980878;28;20189;-67
2023/03/07 09:38:05;;;;;;;24.53;5.07;;;26.00;79.70;;;;;;4990539;28;20203;-68
2023/03/07 09:40:33;;;;;;;20.77;5.00;;;26.00;79.50;;;;;;4991901;28;20618;-67
2023/03/07 09:43:17;;;;;;;21.43;4.17;;;26.00;79.80;;;;;;4989306;28;20182;-66
2023/03/07 09:45:53;;;;;;;24.30;5.23;;;26.00;79.80;;;;;;4988468;28;20702;-67
2023/03/07 09:48:55;;;;;;;23.00;4.67;;;26.00;79.30;;;;;;4988373;28;20185;-66
2023/03/07 09:51:29;;;;;;;29.97;4.83;;;25.80;79.50;;;;;;4937782;28;20647;-67
2023/03/07 09:54:14;;;;;;;17.53;5.20;;;25.80;80.00;;;;;;4991756;28;20249;-66
2023/03/07 09:56:53;;;;;;;26.20;5.50;;;25.80;80.10;;;;;;4990588;28;20182;-67
2023/03/07 09:59:28;;;;;;;27.73;5.20;;;25.80;80.10;;;;;;4991438;28;20659;-66
2023/03/07 10:02:20;;;;;;;23.10;4.00;;;25.80;79.90;;;;;;4979631;28;20276;-67
2023/03/07 10:05:06;;;;;;;29.77;5.10;;;25.80;80.00;;;;;;4986916;28;20293;-67
2023/03/07 10:07:35;;;;;;;26.83;4.93;;;25.80;80.20;;;;;;4991100;28;20186;-69
2023/03/07 10:10:22;;;;;;;30.00;5.40;;;25.80;80.10;;;;;;4982641;28;20574;-67
2023/03/07 10:13:07;;;;;;;29.60;4.87;;;25.70;80.10;;;;;;4990123;28;20230;-66
2023/03/07 10:15:52;;;;;;;21.40;4.90;;;25.60;80.70;;;;;;4989441;28;20204;-67
2023/03/07 10:18:46;;;;;;;22.93;4.60;;;25.70;80.50;;;;;;4989929;28;20538;-67
2023/03/07 10:21:48;;;;;;;20.87;5.40;;;25.80;80.00;;;;;;4992402;28;20286;-66
2023/03/07 10:24:47;;;;;;;22.77;5.07;;;25.60;80.50;;;;;;4980922;28;20217;-67
2023/03/07 10:27:15;;;;;;;26.73;4.90;;;25.60;80.30;;;;;;4994795;28;20196;-67
2023/03/07 10:29:54;;;;;;;22.07;5.47;;;25.60;80.30;;;;;;4994084;28;20196;-65
2023/03/07 10:32:53;;;;;;;25.73;4.80;;;25.50;80.40;;;;;;4994005;28;20277;-66
2023/03/07 10:35:36;;;;;;;22.73;4.83;;;25.50;80.60;;;;;;4936577;28;20613;-67
2023/03/07 10:38:26;;;;;;;19.03;4.73;;;25.40;80.80;;;;;;4994613;28;20186;-67
2023/03/07 10:41:13;;;;;;;27.53;4.70;;;25.30;80.80;;;;;;4994525;28;20269;-69
2023/03/07 10:43:41;;;;;;;23.83;4.50;;;25.30;81.10;;;;;;4996199;28;20184;-68
2023/03/07 10:46:25;;;;;;;26.13;5.20;;;25.20;81.20;;;;;;4976461;28;20309;-70
2023/03/07 10:49:16;;;;;;;21.30;4.97;;;25.20;81.40;;;;;;4992013;28;20641;-68
2023/03/07 10:52:38;;;;;;;22.53;5.30;;;25.20;81.80;;;;;;4935416;28;20212;-67
2023/03/07 10:55:35;;;;;;;28.17;5.37;;;25.20;81.80;;;;;;4955184;28;20242;-67
2023/03/07 10:58:26;;;;;;;28.67;6.07;;;25.20;81.90;;;;;;4985648;28;20269;-65
2023/03/07 11:01:15;;;;;;;24.43;5.13;;;25.10;82.00;;;;;;4976918;28;20196;-68
2023/03/07 11:03:58;;;;;;;17.00;4.60;;;25.00;81.90;;;;;;4991039;28;20297;-72
2023/03/07 11:06:55;;;;;;;13.80;4.40;;;25.00;82.20;;;;;;4991254;28;20641;-74
2023/03/07 11:09:22;;;;;;;18.27;4.03;;;24.90;82.30;;;;;;4994752;28;20182;-73
2023/03/07 11:11:59;;;;;;;18.80;4.80;;;24.80;82.30;;;;;;4992591;28;20324;-71
2023/03/07 11:14:28;;;;;;;22.70;4.50;;;24.70;82.50;;;;;;4993955;28;20224;-72
2023/03/07 11:16:59;;;;;;;26.77;5.67;;;24.70;83.20;;;;;;4994042;28;20237;-74
2023/03/07 11:19:37;;;;;;;20.40;4.10;;;24.70;83.20;;;;;;4994136;28;20178;-74
2023/03/07 11:22:16;;;;;;;24.77;4.57;;;24.70;83.20;;;;;;4995147;28;20188;-74
2023/03/07 11:24:53;;;;;;;17.67;4.90;;;24.60;83.20;;;;;;4994193;28;20184;-69
2023/03/07 11:27:34;;;;;;;21.90;4.70;;;24.60;83.10;;;;;;4995162;28;20193;-71
2023/03/07 11:30:55;;;;;;;18.40;4.83;;;24.50;83.40;;;;;;4993973;28;20178;-73
2023/03/07 11:33:41;;;;;;;24.23;4.63;;;24.40;83.50;;;;;;4953210;28;20223;-70
2023/03/07 11:36:27;;;;;;;22.83;5.00;;;24.30;83.80;;;;;;4983745;28;20202;-71
2023/03/07 11:39:18;;;;;;;22.50;4.63;;;24.30;84.00;;;;;;4994653;28;20270;-75
2023/03/07 11:42:14;;;;;;;20.53;4.57;;;24.30;84.30;;;;;;4994682;28;20178;-72
2023/03/07 11:44:54;;;;;;;20.00;4.57;;;24.20;84.30;;;;;;4989470;28;20251;-70
2023/03/07 11:47:25;;;;;;;19.13;5.07;;;24.10;84.40;;;;;;4994534;28;20560;-69
2023/03/07 11:50:10;;;;;;;26.07;5.30;;;24.10;84.50;;;;;;4994606;28;20220;-67
2023/03/07 11:53:13;;;;;;;17.80;4.90;;;24.00;84.50;;;;;;4995034;28;20261;-67
2023/03/07 11:56:11;;;;;;;21.77;4.73;;;24.00;84.90;;;;;;4937048;28;20192;-67
2023/03/07 11:59:02;;;;;;;21.27;4.47;;;24.00;84.90;;;;;;4989908;28;20178;-68
2023/03/07 12:01:36;;;;;;;20.33;5.10;;;23.90;85.00;;;;;;4993281;28;20193;-69
2023/03/07 12:04:28;;;;;;;17.20;3.87;;;23.90;85.10;;;;;;4992991;28;20189;-67
2023/03/07 12:07:11;;;;;;;19.73;5.23;;;23.80;85.30;;;;;;4981830;28;20664;-68
2023/03/07 12:10:07;;;;;;;20.03;4.83;;;23.80;85.60;;;;;;4994351;28;20178;-68
2023/03/07 12:12:52;;;;;;;16.77;4.50;;;23.80;85.50;;;;;;4993347;28;20707;-68
2023/03/07 12:15:51;;;;;;;18.73;4.93;;;23.80;85.60;;;;;;4993207;28;20221;-68
2023/03/07 12:18:27;;;;;;;23.60;5.63;;;23.80;85.80;;;;;;4957612;28;20197;-68
2023/03/07 12:21:35;;;;;;;19.23;4.60;;;23.70;85.60;;;;;;4994760;28;20587;-69
2023/03/07 12:24:06;;;;;;;16.63;4.50;;;23.70;85.60;;;;;;4987643;28;20186;-68
2023/03/07 12:27:03;;;;;;;17.90;5.07;;;23.60;85.60;;;;;;4994654;28;20170;-68
2023/03/07 12:29:52;;;;;;;23.13;5.00;;;23.60;85.70;;;;;;4992968;28;20178;-67
2023/03/07 12:32:27;;;;;;;20.80;10.37;;;23.60;85.90;;;;;;4994239;28;20224;-67
2023/03/07 12:35:14;;;;;;;17.60;5.87;;;23.50;86.30;;;;;;4993188;28;20737;-67
2023/03/07 12:37:46;;;;;;;17.80;5.10;;;23.60;86.60;;;;;;4993906;28;20245;-66
2023/03/07 12:40:25;;;;;;;24.33;5.50;;;23.60;86.60;;;;;;4993410;28;20189;-66
2023/03/07 12:43:24;;;;;;;20.23;4.47;;;23.60;86.80;;;;;;4992603;28;20185;-68
2023/03/07 12:46:11;;;;;;;10.60;3.80;;;23.60;86.50;;;;;;4982922;28;20196;-68
2023/03/07 12:48:55;;;;;;;21.60;5.97;;;23.50;86.30;;;;;;4993736;28;20185;-68
2023/03/07 12:51:49;;;;;;;20.67;5.13;;;23.50;86.60;;;;;;4993938;28;20185;-66
2023/03/07 12:54:39;;;;;;;25.27;5.73;;;23.50;87.00;;;;;;4983715;28;20352;-67
2023/03/07 12:57:16;;;;;;;37.40;7.43;;;23.40;86.50;;;;;;4983953;28;20173;-67
2023/03/07 12:59:44;;;;;;;27.53;6.27;;;23.30;86.90;;;;;;4993734;28;20185;-67
2023/03/07 13:02:37;;;;;;;26.97;6.60;;;23.30;87.30;;;;;;4992838;28;20196;-66
2023/03/07 13:05:04;;;;;;;25.43;5.60;;;23.50;87.70;;;;;;4988548;28;20182;-68
2023/03/07 13:07:33;;;;;;;23.17;5.00;;;23.50;87.20;;;;;;4993006;28;20192;-74
2023/03/07 13:10:05;;;;;;;23.20;5.27;;;23.40;86.70;;;;;;5001823;28;20165;-73
2023/03/07 13:12:35;;;;;;;25.80;5.73;;;23.30;87.00;;;;;;4985718;28;20319;-73
2023/03/07 13:15:18;;;;;;;19.97;5.53;;;23.30;86.90;;;;;;4989523;28;20221;-71